sensor_id;sensor_type;location;lat;lon;timestamp;P1;durP1;ratioP1;P2;durP2;ratioP2
78887;SDS011;68276;49.326;8.690;2023-03-07T00:01:28;13.25;;;4.90;;
78887;SDS011;68276;49.326;8.690;2023-03-07T00:03:55;13.68;;;5.07;;
78887;SDS011;68276;49.326;8.690;2023-03-07T00:06:21;15.32;;;5.47;;
78887;SDS011;68276;49.326;8.690;2023-03-07T00:08:48;12.90;;;4.85;;
78887;SDS011;68276;49.326;8.690;2023-03-07T00:11:14;16.05;;;6.05;;
78887;SDS011;68276;49.326;8.690;2023-03-07T00:13:40;17.13;;;5.35;;
78887;SDS011;68276;49.326;8.690;2023-03-07T00:16:06;17.47;;;6.43;;
78887;SDS011;68276;49.326;8.690;2023-03-07T00:18:34;14.23;;;5.50;;
78887;SDS011;68276;49.326;8.690;2023-03-07T00:21:01;13.65;;;5.35;;
78887;SDS011;68276;49.326;8.690;2023-03-07T00:23:32;16.27;;;5.97;;
78887;SDS011;68276;49.326;8.690;2023-03-07T00:26:02;16.55;;;5.45;;
78887;SDS011;68276;49.326;8.690;2023-03-07T00:28:54;16.50;;;5.68;;
78887;SDS011;68276;49.326;8.690;2023-03-07T00:31:20;17.30;;;5.82;;
78887;SDS011;68276;49.326;8.690;2023-03-07T00:33:46;16.33;;;6.72;;
78887;SDS011;68276;49.326;8.690;2023-03-07T00:36:16;15.13;;;5.45;;
78887;SDS011;68276;49.326;8.690;2023-03-07T00:38:46;16.73;;;6.10;;
78887;SDS011;68276;49.326;8.690;2023-03-07T00:41:33;15.55;;;5.65;;
78887;SDS011;68276;49.326;8.690;2023-03-07T00:43:57;13.23;;;4.55;;
78887;SDS011;68276;49.326;8.690;2023-03-07T00:46:23;16.30;;;5.40;;
78887;SDS011;68276;49.326;8.690;2023-03-07T00:51:15;15.07;;;5.40;;
78887;SDS011;68276;49.326;8.690;2023-03-07T00:53:42;17.17;;;5.22;;
78887;SDS011;68276;49.326;8.690;2023-03-07T00:56:12;11.93;;;4.70;;
78887;SDS011;68276;49.326;8.690;2023-03-07T00:58:40;14.75;;;5.13;;
78887;SDS011;68276;49.326;8.690;2023-03-07T01:01:06;17.55;;;5.85;;
78887;SDS011;68276;49.326;8.690;2023-03-07T01:03:33;14.90;;;5.50;;
78887;SDS011;68276;49.326;8.690;2023-03-07T01:06:06;14.35;;;5.45;;
78887;SDS011;68276;49.326;8.690;2023-03-07T01:08:35;15.45;;;5.57;;
78887;SDS011;68276;49.326;8.690;2023-03-07T01:11:02;16.75;;;5.47;;
78887;SDS011;68276;49.326;8.690;2023-03-07T01:13:28;12.68;;;4.90;;
78887;SDS011;68276;49.326;8.690;2023-03-07T01:15:55;13.10;;;4.97;;
78887;SDS011;68276;49.326;8.690;2023-03-07T01:18:20;17.05;;;5.90;;
78887;SDS011;68276;49.326;8.690;2023-03-07T01:20:46;14.05;;;5.30;;
78887;SDS011;68276;49.326;8.690;2023-03-07T01:23:12;15.82;;;5.55;;
78887;SDS011;68276;49.326;8.690;2023-03-07T01:25:41;14.77;;;5.78;;
78887;SDS011;68276;49.326;8.690;2023-03-07T01:28:06;18.23;;;5.50;;
78887;SDS011;68276;49.326;8.690;2023-03-07T01:33:01;15.43;;;5.05;;
78887;SDS011;68276;49.326;8.690;2023-03-07T01:35:27;15.95;;;5.95;;
78887;SDS011;68276;49.326;8.690;2023-03-07T01:37:53;15.48;;;6.00;;
78887;SDS011;68276;49.326;8.690;2023-03-07T01:40:20;17.02;;;5.80;;
78887;SDS011;68276;49.326;8.690;2023-03-07T01:42:47;17.00;;;6.15;;
78887;SDS011;68276;49.326;8.690;2023-03-07T01:47:39;13.70;;;5.23;;
78887;SDS011;68276;49.326;8.690;2023-03-07T01:50:06;12.90;;;5.32;;
78887;SDS011;68276;49.326;8.690;2023-03-07T01:52:39;14.90;;;5.35;;
78887;SDS011;68276;49.326;8.690;2023-03-07T01:57:41;15.05;;;5.45;;
78887;SDS011;68276;49.326;8.690;2023-03-07T02:00:10;14.18;;;5.53;;
78887;SDS011;68276;49.326;8.690;2023-03-07T02:02:44;14.85;;;5.90;;
78887;SDS011;68276;49.326;8.690;2023-03-07T02:05:18;17.65;;;6.00;;
78887;SDS011;68276;49.326;8.690;2023-03-07T02:07:48;13.48;;;4.88;;
78887;SDS011;68276;49.326;8.690;2023-03-07T02:10:15;15.77;;;6.35;;
78887;SDS011;68276;49.326;8.690;2023-03-07T02:12:43;16.25;;;5.78;;
78887;SDS011;68276;49.326;8.690;2023-03-07T02:15:09;14.05;;;5.18;;
78887;SDS011;68276;49.326;8.690;2023-03-07T02:17:36;18.50;;;7.03;;
78887;SDS011;68276;49.326;8.690;2023-03-07T02:22:53;15.20;;;5.40;;
78887;SDS011;68276;49.326;8.690;2023-03-07T02:25:22;14.05;;;5.13;;
78887;SDS011;68276;49.326;8.690;2023-03-07T02:27:48;14.35;;;5.80;;
78887;SDS011;68276;49.326;8.690;2023-03-07T02:30:17;15.77;;;5.82;;
78887;SDS011;68276;49.326;8.690;2023-03-07T02:32:43;15.02;;;5.25;;
78887;SDS011;68276;49.326;8.690;2023-03-07T02:35:16;14.17;;;5.83;;
78887;SDS011;68276;49.326;8.690;2023-03-07T02:37:44;15.30;;;6.43;;
78887;SDS011;68276;49.326;8.690;2023-03-07T02:40:11;12.98;;;5.13;;
78887;SDS011;68276;49.326;8.690;2023-03-07T02:42:40;15.15;;;5.43;;
78887;SDS011;68276;49.326;8.690;2023-03-07T02:45:08;14.52;;;5.53;;
78887;SDS011;68276;49.326;8.690;2023-03-07T02:47:35;18.38;;;6.35;;
78887;SDS011;68276;49.326;8.690;2023-03-07T02:50:01;16.02;;;5.80;;
78887;SDS011;68276;49.326;8.690;2023-03-07T02:52:27;16.27;;;5.85;;
78887;SDS011;68276;49.326;8.690;2023-03-07T02:54:54;15.18;;;6.13;;
78887;SDS011;68276;49.326;8.690;2023-03-07T02:57:19;19.20;;;7.40;;
78887;SDS011;68276;49.326;8.690;2023-03-07T02:59:44;15.37;;;5.53;;
78887;SDS011;68276;49.326;8.690;2023-03-07T03:02:10;16.92;;;6.05;;
78887;SDS011;68276;49.326;8.690;2023-03-07T03:04:35;15.50;;;5.93;;
78887;SDS011;68276;49.326;8.690;2023-03-07T03:07:01;17.73;;;5.93;;
78887;SDS011;68276;49.326;8.690;2023-03-07T03:09:26;19.77;;;6.32;;
78887;SDS011;68276;49.326;8.690;2023-03-07T03:11:53;17.55;;;6.38;;
78887;SDS011;68276;49.326;8.690;2023-03-07T03:14:18;13.80;;;4.93;;
78887;SDS011;68276;49.326;8.690;2023-03-07T03:16:44;12.85;;;4.63;;
78887;SDS011;68276;49.326;8.690;2023-03-07T03:19:09;19.48;;;5.82;;
78887;SDS011;68276;49.326;8.690;2023-03-07T03:21:35;19.27;;;6.57;;
78887;SDS011;68276;49.326;8.690;2023-03-07T03:24:06;16.37;;;5.77;;
78887;SDS011;68276;49.326;8.690;2023-03-07T03:26:33;17.45;;;6.95;;
78887;SDS011;68276;49.326;8.690;2023-03-07T03:28:59;16.30;;;6.63;;
78887;SDS011;68276;49.326;8.690;2023-03-07T03:31:25;15.13;;;6.25;;
78887;SDS011;68276;49.326;8.690;2023-03-07T03:33:52;16.30;;;6.20;;
78887;SDS011;68276;49.326;8.690;2023-03-07T03:36:18;16.33;;;5.97;;
78887;SDS011;68276;49.326;8.690;2023-03-07T03:38:44;15.35;;;6.65;;
78887;SDS011;68276;49.326;8.690;2023-03-07T03:41:10;20.77;;;6.80;;
78887;SDS011;68276;49.326;8.690;2023-03-07T03:43:37;19.45;;;8.63;;
78887;SDS011;68276;49.326;8.690;2023-03-07T03:46:03;20.38;;;6.80;;
78887;SDS011;68276;49.326;8.690;2023-03-07T03:48:28;16.25;;;6.63;;
78887;SDS011;68276;49.326;8.690;2023-03-07T03:51:01;15.25;;;5.38;;
78887;SDS011;68276;49.326;8.690;2023-03-07T03:53:29;17.27;;;6.30;;
78887;SDS011;68276;49.326;8.690;2023-03-07T03:58:33;17.35;;;5.78;;
78887;SDS011;68276;49.326;8.690;2023-03-07T04:01:03;16.42;;;6.68;;
78887;SDS011;68276;49.326;8.690;2023-03-07T04:03:34;20.20;;;7.03;;
78887;SDS011;68276;49.326;8.690;2023-03-07T04:06:05;15.93;;;5.90;;
78887;SDS011;68276;49.326;8.690;2023-03-07T04:08:33;15.35;;;5.05;;
78887;SDS011;68276;49.326;8.690;2023-03-07T04:10:59;14.70;;;5.57;;
78887;SDS011;68276;49.326;8.690;2023-03-07T04:13:24;16.23;;;6.68;;
78887;SDS011;68276;49.326;8.690;2023-03-07T04:15:50;16.77;;;6.43;;
78887;SDS011;68276;49.326;8.690;2023-03-07T04:18:16;15.85;;;5.82;;
78887;SDS011;68276;49.326;8.690;2023-03-07T04:20:43;14.80;;;5.88;;
78887;SDS011;68276;49.326;8.690;2023-03-07T04:23:09;14.07;;;5.38;;
78887;SDS011;68276;49.326;8.690;2023-03-07T04:25:35;16.98;;;6.80;;
78887;SDS011;68276;49.326;8.690;2023-03-07T04:28:01;15.50;;;5.63;;
78887;SDS011;68276;49.326;8.690;2023-03-07T04:30:26;17.52;;;5.22;;
78887;SDS011;68276;49.326;8.690;2023-03-07T04:32:52;15.38;;;5.80;;
78887;SDS011;68276;49.326;8.690;2023-03-07T04:35:17;15.70;;;5.82;;
78887;SDS011;68276;49.326;8.690;2023-03-07T04:37:43;13.77;;;5.20;;
78887;SDS011;68276;49.326;8.690;2023-03-07T04:40:08;16.83;;;6.03;;
78887;SDS011;68276;49.326;8.690;2023-03-07T04:42:34;13.88;;;5.80;;
78887;SDS011;68276;49.326;8.690;2023-03-07T04:45:00;14.32;;;5.25;;
78887;SDS011;68276;49.326;8.690;2023-03-07T04:47:25;15.43;;;5.57;;
78887;SDS011;68276;49.326;8.690;2023-03-07T04:49:50;13.27;;;4.67;;
78887;SDS011;68276;49.326;8.690;2023-03-07T04:52:16;16.83;;;4.82;;
78887;SDS011;68276;49.326;8.690;2023-03-07T04:54:41;13.57;;;5.00;;
78887;SDS011;68276;49.326;8.690;2023-03-07T04:57:07;16.13;;;5.53;;
78887;SDS011;68276;49.326;8.690;2023-03-07T04:59:32;17.45;;;5.43;;
78887;SDS011;68276;49.326;8.690;2023-03-07T05:02:00;16.38;;;5.50;;
78887;SDS011;68276;49.326;8.690;2023-03-07T05:04:25;16.75;;;5.68;;
78887;SDS011;68276;49.326;8.690;2023-03-07T05:06:51;13.47;;;5.10;;
78887;SDS011;68276;49.326;8.690;2023-03-07T05:09:16;15.30;;;5.37;;
78887;SDS011;68276;49.326;8.690;2023-03-07T05:11:41;15.65;;;5.53;;
78887;SDS011;68276;49.326;8.690;2023-03-07T05:14:07;14.85;;;5.10;;
78887;SDS011;68276;49.326;8.690;2023-03-07T05:16:32;17.15;;;5.80;;
78887;SDS011;68276;49.326;8.690;2023-03-07T05:18:58;16.38;;;5.70;;
78887;SDS011;68276;49.326;8.690;2023-03-07T05:21:24;15.00;;;5.38;;
78887;SDS011;68276;49.326;8.690;2023-03-07T05:23:50;16.42;;;5.75;;
78887;SDS011;68276;49.326;8.690;2023-03-07T05:26:15;14.60;;;5.13;;
78887;SDS011;68276;49.326;8.690;2023-03-07T05:28:41;16.40;;;5.03;;
78887;SDS011;68276;49.326;8.690;2023-03-07T05:31:06;14.77;;;5.55;;
78887;SDS011;68276;49.326;8.690;2023-03-07T05:33:31;12.30;;;4.15;;
78887;SDS011;68276;49.326;8.690;2023-03-07T05:36:00;14.70;;;4.67;;
78887;SDS011;68276;49.326;8.690;2023-03-07T05:38:27;13.13;;;4.90;;
78887;SDS011;68276;49.326;8.690;2023-03-07T05:40:53;12.65;;;4.57;;
78887;SDS011;68276;49.326;8.690;2023-03-07T05:43:18;14.97;;;5.07;;
78887;SDS011;68276;49.326;8.690;2023-03-07T05:45:43;12.17;;;4.73;;
78887;SDS011;68276;49.326;8.690;2023-03-07T05:48:09;15.07;;;5.07;;
78887;SDS011;68276;49.326;8.690;2023-03-07T05:50:35;15.87;;;5.60;;
78887;SDS011;68276;49.326;8.690;2023-03-07T05:53:01;13.27;;;4.82;;
78887;SDS011;68276;49.326;8.690;2023-03-07T05:55:28;12.10;;;4.93;;
78887;SDS011;68276;49.326;8.690;2023-03-07T05:57:53;16.55;;;5.35;;
78887;SDS011;68276;49.326;8.690;2023-03-07T06:00:19;12.77;;;5.30;;
78887;SDS011;68276;49.326;8.690;2023-03-07T06:02:45;12.20;;;4.53;;
78887;SDS011;68276;49.326;8.690;2023-03-07T06:05:10;15.50;;;4.78;;
78887;SDS011;68276;49.326;8.690;2023-03-07T06:07:35;11.30;;;4.35;;
78887;SDS011;68276;49.326;8.690;2023-03-07T06:10:01;12.52;;;4.65;;
78887;SDS011;68276;49.326;8.690;2023-03-07T06:12:26;12.57;;;4.68;;
78887;SDS011;68276;49.326;8.690;2023-03-07T06:14:52;14.00;;;3.90;;
78887;SDS011;68276;49.326;8.690;2023-03-07T06:17:18;12.50;;;4.43;;
78887;SDS011;68276;49.326;8.690;2023-03-07T06:19:43;15.75;;;5.07;;
78887;SDS011;68276;49.326;8.690;2023-03-07T06:22:09;11.10;;;4.03;;
78887;SDS011;68276;49.326;8.690;2023-03-07T06:24:34;14.13;;;4.50;;
78887;SDS011;68276;49.326;8.690;2023-03-07T06:26:59;16.88;;;5.45;;
78887;SDS011;68276;49.326;8.690;2023-03-07T06:29:25;11.88;;;4.40;;
78887;SDS011;68276;49.326;8.690;2023-03-07T06:31:50;13.80;;;4.88;;
78887;SDS011;68276;49.326;8.690;2023-03-07T06:34:16;13.55;;;5.40;;
78887;SDS011;68276;49.326;8.690;2023-03-07T06:36:41;13.00;;;4.20;;
78887;SDS011;68276;49.326;8.690;2023-03-07T06:39:07;12.50;;;4.15;;
78887;SDS011;68276;49.326;8.690;2023-03-07T06:41:32;14.23;;;5.05;;
78887;SDS011;68276;49.326;8.690;2023-03-07T06:43:57;14.00;;;4.88;;
78887;SDS011;68276;49.326;8.690;2023-03-07T06:46:23;13.10;;;4.43;;
78887;SDS011;68276;49.326;8.690;2023-03-07T06:48:48;12.82;;;4.15;;
78887;SDS011;68276;49.326;8.690;2023-03-07T06:51:16;12.02;;;4.43;;
78887;SDS011;68276;49.326;8.690;2023-03-07T06:53:41;13.10;;;4.78;;
78887;SDS011;68276;49.326;8.690;2023-03-07T06:56:06;12.80;;;5.03;;
78887;SDS011;68276;49.326;8.690;2023-03-07T06:58:32;11.65;;;4.57;;
78887;SDS011;68276;49.326;8.690;2023-03-07T07:00:58;14.00;;;4.90;;
78887;SDS011;68276;49.326;8.690;2023-03-07T07:03:23;13.83;;;4.83;;
78887;SDS011;68276;49.326;8.690;2023-03-07T07:05:49;11.13;;;4.18;;
78887;SDS011;68276;49.326;8.690;2023-03-07T07:08:14;14.77;;;4.55;;
78887;SDS011;68276;49.326;8.690;2023-03-07T07:10:40;13.10;;;4.28;;
78887;SDS011;68276;49.326;8.690;2023-03-07T07:13:05;13.48;;;4.30;;
78887;SDS011;68276;49.326;8.690;2023-03-07T07:15:31;11.85;;;4.15;;
78887;SDS011;68276;49.326;8.690;2023-03-07T07:17:56;11.60;;;4.27;;
78887;SDS011;68276;49.326;8.690;2023-03-07T07:20:22;13.32;;;4.00;;
78887;SDS011;68276;49.326;8.690;2023-03-07T07:22:48;11.45;;;4.20;;
78887;SDS011;68276;49.326;8.690;2023-03-07T07:25:13;12.15;;;4.80;;
78887;SDS011;68276;49.326;8.690;2023-03-07T07:27:39;14.50;;;4.53;;
78887;SDS011;68276;49.326;8.690;2023-03-07T07:30:05;9.85;;;3.65;;
78887;SDS011;68276;49.326;8.690;2023-03-07T07:32:31;12.40;;;4.55;;
78887;SDS011;68276;49.326;8.690;2023-03-07T07:34:57;12.82;;;4.35;;
78887;SDS011;68276;49.326;8.690;2023-03-07T07:37:22;12.20;;;4.03;;
78887;SDS011;68276;49.326;8.690;2023-03-07T07:39:48;12.47;;;4.20;;
78887;SDS011;68276;49.326;8.690;2023-03-07T07:42:14;11.07;;;4.25;;
78887;SDS011;68276;49.326;8.690;2023-03-07T07:44:42;11.60;;;4.15;;
78887;SDS011;68276;49.326;8.690;2023-03-07T07:47:08;11.13;;;4.10;;
78887;SDS011;68276;49.326;8.690;2023-03-07T07:49:34;13.88;;;4.28;;
78887;SDS011;68276;49.326;8.690;2023-03-07T07:51:59;13.85;;;4.25;;
78887;SDS011;68276;49.326;8.690;2023-03-07T07:54:25;9.48;;;2.90;;
78887;SDS011;68276;49.326;8.690;2023-03-07T07:56:51;11.30;;;3.83;;
78887;SDS011;68276;49.326;8.690;2023-03-07T07:59:17;12.90;;;4.82;;
78887;SDS011;68276;49.326;8.690;2023-03-07T08:01:42;10.88;;;4.00;;
78887;SDS011;68276;49.326;8.690;2023-03-07T08:04:08;13.60;;;4.65;;
78887;SDS011;68276;49.326;8.690;2023-03-07T08:06:33;10.33;;;3.37;;
78887;SDS011;68276;49.326;8.690;2023-03-07T08:08:59;10.68;;;4.40;;
78887;SDS011;68276;49.326;8.690;2023-03-07T08:11:24;10.40;;;3.17;;
78887;SDS011;68276;49.326;8.690;2023-03-07T08:13:50;11.30;;;4.18;;
78887;SDS011;68276;49.326;8.690;2023-03-07T08:16:17;14.70;;;5.25;;
78887;SDS011;68276;49.326;8.690;2023-03-07T08:18:47;19.08;;;4.15;;
78887;SDS011;68276;49.326;8.690;2023-03-07T08:21:18;12.15;;;3.85;;
78887;SDS011;68276;49.326;8.690;2023-03-07T08:23:44;9.50;;;3.17;;
78887;SDS011;68276;49.326;8.690;2023-03-07T08:26:09;9.33;;;3.17;;
78887;SDS011;68276;49.326;8.690;2023-03-07T08:28:38;10.30;;;3.90;;
78887;SDS011;68276;49.326;8.690;2023-03-07T08:31:05;9.90;;;3.67;;
78887;SDS011;68276;49.326;8.690;2023-03-07T08:33:35;11.88;;;3.85;;
78887;SDS011;68276;49.326;8.690;2023-03-07T08:36:00;8.57;;;3.40;;
78887;SDS011;68276;49.326;8.690;2023-03-07T08:38:26;10.52;;;3.58;;
78887;SDS011;68276;49.326;8.690;2023-03-07T08:40:52;11.05;;;3.88;;
78887;SDS011;68276;49.326;8.690;2023-03-07T08:43:17;13.63;;;4.27;;
78887;SDS011;68276;49.326;8.690;2023-03-07T08:45:43;9.95;;;3.47;;
78887;SDS011;68276;49.326;8.690;2023-03-07T08:48:08;10.57;;;3.20;;
78887;SDS011;68276;49.326;8.690;2023-03-07T08:50:34;9.73;;;2.72;;
78887;SDS011;68276;49.326;8.690;2023-03-07T08:53:00;11.68;;;3.65;;
78887;SDS011;68276;49.326;8.690;2023-03-07T08:55:26;9.10;;;3.50;;
78887;SDS011;68276;49.326;8.690;2023-03-07T08:57:52;12.68;;;3.65;;
78887;SDS011;68276;49.326;8.690;2023-03-07T09:00:17;9.55;;;3.20;;
78887;SDS011;68276;49.326;8.690;2023-03-07T09:02:43;7.60;;;2.50;;
78887;SDS011;68276;49.326;8.690;2023-03-07T09:05:09;14.00;;;3.65;;
78887;SDS011;68276;49.326;8.690;2023-03-07T09:07:34;9.57;;;3.10;;
78887;SDS011;68276;49.326;8.690;2023-03-07T09:10:00;10.65;;;3.70;;
78887;SDS011;68276;49.326;8.690;2023-03-07T09:12:25;11.77;;;3.78;;
78887;SDS011;68276;49.326;8.690;2023-03-07T09:14:54;9.82;;;3.25;;
78887;SDS011;68276;49.326;8.690;2023-03-07T09:17:19;10.60;;;3.88;;
78887;SDS011;68276;49.326;8.690;2023-03-07T09:19:45;8.82;;;3.05;;
78887;SDS011;68276;49.326;8.690;2023-03-07T09:22:10;10.75;;;3.25;;
78887;SDS011;68276;49.326;8.690;2023-03-07T09:24:35;8.50;;;2.93;;
78887;SDS011;68276;49.326;8.690;2023-03-07T09:27:01;9.07;;;3.07;;
78887;SDS011;68276;49.326;8.690;2023-03-07T09:29:26;10.90;;;3.47;;
78887;SDS011;68276;49.326;8.690;2023-03-07T09:31:52;9.45;;;3.75;;
78887;SDS011;68276;49.326;8.690;2023-03-07T09:34:18;10.18;;;3.30;;
78887;SDS011;68276;49.326;8.690;2023-03-07T09:36:43;10.32;;;3.15;;
78887;SDS011;68276;49.326;8.690;2023-03-07T09:39:09;9.75;;;3.38;;
78887;SDS011;68276;49.326;8.690;2023-03-07T09:41:51;9.88;;;3.42;;
78887;SDS011;68276;49.326;8.690;2023-03-07T09:47:49;12.73;;;3.80;;
78887;SDS011;68276;49.326;8.690;2023-03-07T09:50:25;11.45;;;3.08;;
78887;SDS011;68276;49.326;8.690;2023-03-07T09:53:01;11.20;;;3.70;;
78887;SDS011;68276;49.326;8.690;2023-03-07T09:55:28;10.82;;;4.07;;
78887;SDS011;68276;49.326;8.690;2023-03-07T09:57:56;12.10;;;3.25;;
78887;SDS011;68276;49.326;8.690;2023-03-07T10:00:38;11.07;;;3.60;;
78887;SDS011;68276;49.326;8.690;2023-03-07T10:05:49;10.00;;;3.30;;
78887;SDS011;68276;49.326;8.690;2023-03-07T10:08:27;10.02;;;2.92;;
78887;SDS011;68276;49.326;8.690;2023-03-07T10:13:29;10.93;;;3.63;;
78887;SDS011;68276;49.326;8.690;2023-03-07T10:16:25;9.55;;;3.25;;
78887;SDS011;68276;49.326;8.690;2023-03-07T10:24:30;8.40;;;3.20;;
78887;SDS011;68276;49.326;8.690;2023-03-07T10:27:08;9.48;;;3.38;;
78887;SDS011;68276;49.326;8.690;2023-03-07T10:34:59;7.47;;;2.83;;
78887;SDS011;68276;49.326;8.690;2023-03-07T10:40:33;10.13;;;3.90;;
78887;SDS011;68276;49.326;8.690;2023-03-07T10:43:06;8.75;;;2.97;;
78887;SDS011;68276;49.326;8.690;2023-03-07T10:48:14;8.87;;;2.60;;
78887;SDS011;68276;49.326;8.690;2023-03-07T10:53:22;9.10;;;3.60;;
78887;SDS011;68276;49.326;8.690;2023-03-07T10:55:50;8.77;;;2.72;;
78887;SDS011;68276;49.326;8.690;2023-03-07T11:03:40;9.38;;;2.75;;
78887;SDS011;68276;49.326;8.690;2023-03-07T11:09:58;9.20;;;2.83;;
78887;SDS011;68276;49.326;8.690;2023-03-07T11:11:57;10.98;;;3.10;;
78887;SDS011;68276;49.326;8.690;2023-03-07T11:14:24;10.52;;;3.25;;
78887;SDS011;68276;49.326;8.690;2023-03-07T11:21:55;10.18;;;3.28;;
78887;SDS011;68276;49.326;8.690;2023-03-07T11:26:57;9.25;;;2.85;;
78887;SDS011;68276;49.326;8.690;2023-03-07T11:29:24;9.80;;;2.83;;
78887;SDS011;68276;49.326;8.690;2023-03-07T11:34:36;8.88;;;3.08;;
78887;SDS011;68276;49.326;8.690;2023-03-07T11:37:14;9.48;;;3.28;;
78887;SDS011;68276;49.326;8.690;2023-03-07T11:42:45;10.15;;;3.45;;
78887;SDS011;68276;49.326;8.690;2023-03-07T11:54:19;9.93;;;3.15;;
78887;SDS011;68276;49.326;8.690;2023-03-07T11:56:54;11.45;;;3.78;;
78887;SDS011;68276;49.326;8.690;2023-03-07T12:05:18;10.50;;;3.70;;
78887;SDS011;68276;49.326;8.690;2023-03-07T12:08:00;9.40;;;3.47;;
78887;SDS011;68276;49.326;8.690;2023-03-07T12:19:17;10.07;;;3.20;;
78887;SDS011;68276;49.326;8.690;2023-03-07T12:39:09;10.45;;;3.25;;
78887;SDS011;68276;49.326;8.690;2023-03-07T12:42:08;8.50;;;2.90;;
78887;SDS011;68276;49.326;8.690;2023-03-07T12:44:57;8.05;;;2.55;;
78887;SDS011;68276;49.326;8.690;2023-03-07T12:50:22;9.55;;;3.45;;
78887;SDS011;68276;49.326;8.690;2023-03-07T12:55:43;9.02;;;3.00;;
78887;SDS011;68276;49.326;8.690;2023-03-07T13:01:03;7.80;;;2.55;;
78887;SDS011;68276;49.326;8.690;2023-03-07T13:06:21;10.20;;;3.28;;
78887;SDS011;68276;49.326;8.690;2023-03-07T13:08:49;7.60;;;2.38;;
78887;SDS011;68276;49.326;8.690;2023-03-07T13:11:21;9.95;;;3.38;;
78887;SDS011;68276;49.326;8.690;2023-03-07T13:21:55;9.07;;;3.47;;
78887;SDS011;68276;49.326;8.690;2023-03-07T13:24:31;10.75;;;3.17;;
78887;SDS011;68276;49.326;8.690;2023-03-07T13:27:17;10.52;;;3.40;;
78887;SDS011;68276;49.326;8.690;2023-03-07T13:40:22;10.20;;;2.95;;
78887;SDS011;68276;49.326;8.690;2023-03-07T13:42:53;7.22;;;2.05;;
78887;SDS011;68276;49.326;8.690;2023-03-07T13:48:12;9.25;;;3.17;;
78887;SDS011;68276;49.326;8.690;2023-03-07T13:55:45;8.75;;;3.00;;
78887;SDS011;68276;49.326;8.690;2023-03-07T14:01:02;7.72;;;2.58;;
78887;SDS011;68276;49.326;8.690;2023-03-07T14:03:31;8.95;;;3.13;;
78887;SDS011;68276;49.326;8.690;2023-03-07T14:06:14;7.90;;;2.45;;
78887;SDS011;68276;49.326;8.690;2023-03-07T14:08:44;7.45;;;2.20;;
78887;SDS011;68276;49.326;8.690;2023-03-07T14:11:38;9.15;;;2.65;;
78887;SDS011;68276;49.326;8.690;2023-03-07T14:14:17;9.52;;;2.55;;
78887;SDS011;68276;49.326;8.690;2023-03-07T14:17:10;9.75;;;3.58;;
78887;SDS011;68276;49.326;8.690;2023-03-07T14:25:14;8.32;;;2.67;;
78887;SDS011;68276;49.326;8.690;2023-03-07T14:27:53;8.93;;;2.50;;
78887;SDS011;68276;49.326;8.690;2023-03-07T14:30:22;9.82;;;2.97;;
78887;SDS011;68276;49.326;8.690;2023-03-07T14:32:49;10.30;;;2.92;;
78887;SDS011;68276;49.326;8.690;2023-03-07T14:35:31;8.00;;;2.35;;
78887;SDS011;68276;49.326;8.690;2023-03-07T14:38:08;8.88;;;2.75;;
78887;SDS011;68276;49.326;8.690;2023-03-07T14:40:59;8.35;;;2.90;;
78887;SDS011;68276;49.326;8.690;2023-03-07T14:46:20;7.53;;;2.50;;
78887;SDS011;68276;49.326;8.690;2023-03-07T14:51:28;7.47;;;2.50;;
78887;SDS011;68276;49.326;8.690;2023-03-07T14:56:25;8.73;;;2.58;;
78887;SDS011;68276;49.326;8.690;2023-03-07T14:58:54;8.13;;;2.45;;
78887;SDS011;68276;49.326;8.690;2023-03-07T15:01:22;10.13;;;3.00;;
78887;SDS011;68276;49.326;8.690;2023-03-07T15:03:53;8.88;;;2.60;;
78887;SDS011;68276;49.326;8.690;2023-03-07T15:06:20;8.60;;;2.28;;
78887;SDS011;68276;49.326;8.690;2023-03-07T15:08:48;8.85;;;2.80;;
78887;SDS011;68276;49.326;8.690;2023-03-07T15:16:32;8.68;;;2.30;;
78887;SDS011;68276;49.326;8.690;2023-03-07T15:19:08;5.78;;;1.85;;
78887;SDS011;68276;49.326;8.690;2023-03-07T15:21:53;7.60;;;2.00;;
78887;SDS011;68276;49.326;8.690;2023-03-07T15:24:31;7.40;;;2.08;;
78887;SDS011;68276;49.326;8.690;2023-03-07T15:27:01;8.25;;;2.38;;
78887;SDS011;68276;49.326;8.690;2023-03-07T15:29:29;7.65;;;2.10;;
78887;SDS011;68276;49.326;8.690;2023-03-07T15:31:57;8.50;;;2.35;;
78887;SDS011;68276;49.326;8.690;2023-03-07T15:34:27;6.45;;;1.92;;
78887;SDS011;68276;49.326;8.690;2023-03-07T15:37:11;7.80;;;2.75;;
78887;SDS011;68276;49.326;8.690;2023-03-07T15:45:29;8.23;;;2.63;;
78887;SDS011;68276;49.326;8.690;2023-03-07T15:50:57;7.38;;;2.38;;
78887;SDS011;68276;49.326;8.690;2023-03-07T15:53:35;8.48;;;2.72;;
78887;SDS011;68276;49.326;8.690;2023-03-07T15:56:03;8.55;;;2.40;;
78887;SDS011;68276;49.326;8.690;2023-03-07T15:58:46;9.35;;;2.80;;
78887;SDS011;68276;49.326;8.690;2023-03-07T16:09:16;9.75;;;3.17;;
78887;SDS011;68276;49.326;8.690;2023-03-07T16:11:43;9.05;;;3.00;;
78887;SDS011;68276;49.326;8.690;2023-03-07T16:14:18;10.65;;;3.17;;
78887;SDS011;68276;49.326;8.690;2023-03-07T16:16:44;10.75;;;2.47;;
78887;SDS011;68276;49.326;8.690;2023-03-07T16:19:10;8.20;;;2.70;;
78887;SDS011;68276;49.326;8.690;2023-03-07T16:21:35;8.63;;;2.90;;
78887;SDS011;68276;49.326;8.690;2023-03-07T16:24:01;11.85;;;3.38;;
78887;SDS011;68276;49.326;8.690;2023-03-07T16:26:27;9.07;;;3.55;;
78887;SDS011;68276;49.326;8.690;2023-03-07T16:28:52;8.98;;;3.53;;
78887;SDS011;68276;49.326;8.690;2023-03-07T16:31:18;8.95;;;2.90;;
78887;SDS011;68276;49.326;8.690;2023-03-07T16:33:45;8.55;;;3.03;;
78887;SDS011;68276;49.326;8.690;2023-03-07T16:36:11;10.10;;;3.33;;
78887;SDS011;68276;49.326;8.690;2023-03-07T16:38:38;9.70;;;3.35;;
78887;SDS011;68276;49.326;8.690;2023-03-07T16:41:18;9.70;;;3.30;;
78887;SDS011;68276;49.326;8.690;2023-03-07T16:43:46;8.70;;;3.03;;
78887;SDS011;68276;49.326;8.690;2023-03-07T16:46:18;10.30;;;3.85;;
78887;SDS011;68276;49.326;8.690;2023-03-07T16:48:44;11.45;;;3.50;;
78887;SDS011;68276;49.326;8.690;2023-03-07T16:51:17;9.68;;;3.60;;
78887;SDS011;68276;49.326;8.690;2023-03-07T16:53:45;8.52;;;3.20;;
78887;SDS011;68276;49.326;8.690;2023-03-07T16:56:18;8.95;;;3.42;;
78887;SDS011;68276;49.326;8.690;2023-03-07T16:58:46;10.18;;;3.10;;
78887;SDS011;68276;49.326;8.690;2023-03-07T17:01:12;11.45;;;5.03;;
78887;SDS011;68276;49.326;8.690;2023-03-07T17:03:38;10.15;;;3.70;;
78887;SDS011;68276;49.326;8.690;2023-03-07T17:06:04;11.48;;;3.30;;
78887;SDS011;68276;49.326;8.690;2023-03-07T17:08:30;11.98;;;3.90;;
78887;SDS011;68276;49.326;8.690;2023-03-07T17:10:56;10.85;;;4.07;;
78887;SDS011;68276;49.326;8.690;2023-03-07T17:13:21;13.68;;;4.80;;
78887;SDS011;68276;49.326;8.690;2023-03-07T17:15:47;11.25;;;3.55;;
78887;SDS011;68276;49.326;8.690;2023-03-07T17:18:13;17.15;;;9.38;;
78887;SDS011;68276;49.326;8.690;2023-03-07T17:20:39;9.93;;;3.58;;
78887;SDS011;68276;49.326;8.690;2023-03-07T17:23:05;14.88;;;4.85;;
78887;SDS011;68276;49.326;8.690;2023-03-07T17:25:31;8.75;;;3.25;;
78887;SDS011;68276;49.326;8.690;2023-03-07T17:28:01;9.10;;;2.90;;
78887;SDS011;68276;49.326;8.690;2023-03-07T17:30:30;11.05;;;3.40;;
78887;SDS011;68276;49.326;8.690;2023-03-07T17:32:57;10.32;;;3.30;;
78887;SDS011;68276;49.326;8.690;2023-03-07T17:35:25;10.57;;;3.92;;
78887;SDS011;68276;49.326;8.690;2023-03-07T17:37:52;10.73;;;3.42;;
78887;SDS011;68276;49.326;8.690;2023-03-07T17:40:18;9.10;;;3.42;;
78887;SDS011;68276;49.326;8.690;2023-03-07T17:42:46;11.88;;;5.00;;
78887;SDS011;68276;49.326;8.690;2023-03-07T17:45:13;11.30;;;3.60;;
78887;SDS011;68276;49.326;8.690;2023-03-07T17:47:38;10.15;;;3.53;;